Pakse International Airport
VLPS : now visible

Airfield :











YOU CAN JOIN US ON...

 
LOGIN :

Register | Disclaimer

   EN    FR    IT 

 









Legend :    VFR   Marginal VFR   IFR   Intensive IFR   Very Intensive IFR
Visi :
Ceiling :
>= 8 km
>= 3000ft
5 to 8 km
1000 to 3000 ft
1500m to 5 km
500 to 1000 ft
800 to 1500m
200 to 500 ft
< 800m
< 200 ft
Symbols :   Thunderstorms  Fog  Heavy snow  Heavy precipitations  Wind > 20 kt







- Airport Elevation : 351 ft
- IATA code : PKZ


VLPS - Pakse International

CURRENT METAR :
  • 240600Z 14004KT 9999 SCT023 FEW100 FEW200 32/24 Q1009 NOSIG

EXPIRED METARs :
  • 240500Z 18004KT 9999 SCT023 FEW200 32/23 Q1009 NOSIG
  • 240400Z 18004KT 9999 SCT023 SCT100 32/24 Q1009 NOSIG

TAF TAF VLPS
Valid from the 24 at 06:00 until the 25 at 06:00 UTC


240500Z 2406/2506 18006KT 9999 FEW020 FEW023TCU SCT200
VLVT FIR / Asia



MET'MAP, your aeronautical weather chart ! - Copyright ORBIFLY December 2007 - Disclaimer

ORBIFLY MET'MAP TEAM :

Programming & Development : Alexandra Zaïnal
Concept & Development : Baudouin d'Aumeries
Co-Development & Prog : Marc-Olivier Méhu
Technical & hardware support : Manuel Goepfert

Contact : metmap@orbifly.com




SOURCES & CREDITS :

   NOAA       Earth
Advisory